MMPR/PVR METAR and TAF weather

Enter ICAO airport designator
Station Type Date Time Source
MMPR METAR 2019/12/09 13:44 UTC NOAA

MMPR 091344Z 00000KT 12SM SKC 19/18 A2994


Station Type Date Time Source
MMPR Decoded METAR 2019/12/09 13:44 UTC NOAA

Puerto Vallarta / Lic, Mexico (MMPR) 20-41N 105-15W
Dec 09, 2019 - 08:44 AM EST / 2019.12.09 1344 UTC
Wind: Calm:0
Visibility: 12 mile(s):0
Sky conditions: clear
Temperature: 66 F (19 C)
Dew Point: 64 F (18 C)
Relative Humidity: 93%
Pressure (altimeter): 29.94 in. Hg (1013 hPa)
ob: MMPR 091344Z 00000KT 12SM SKC 19/18 A2994
cycle: 13

Station Type Date Time Source
MMPR TAF 2019/12/09 12:07 UTC NOAA

TAF MMPR 091100Z 0912/1018 04005KT P6SM SKC TX28/0920Z TN21/0912Z
FM091800 23010KT P6SM SCT250
FM100600 34005KT P6SM SCT020
FM101700 23010KT P6SM SCT250

Example: see airport list